sensor_id;sensor_type;location;lat;lon;timestamp;P1;durP1;ratioP1;P2;durP2;ratioP2
74543;SDS011;63016;55.030;38.710;2023-05-07T00:01:06;6.07;;;3.08;;
74543;SDS011;63016;55.030;38.710;2023-05-07T00:03:32;9.10;;;3.45;;
74543;SDS011;63016;55.030;38.710;2023-05-07T00:05:58;9.60;;;3.40;;
74543;SDS011;63016;55.030;38.710;2023-05-07T00:08:23;8.10;;;3.35;;
74543;SDS011;63016;55.030;38.710;2023-05-07T00:10:49;11.48;;;3.28;;
74543;SDS011;63016;55.030;38.710;2023-05-07T00:13:15;4.68;;;2.88;;
74543;SDS011;63016;55.030;38.710;2023-05-07T00:15:40;6.22;;;3.10;;
74543;SDS011;63016;55.030;38.710;2023-05-07T00:18:06;8.85;;;3.65;;
74543;SDS011;63016;55.030;38.710;2023-05-07T00:20:31;7.35;;;3.30;;
74543;SDS011;63016;55.030;38.710;2023-05-07T00:22:57;10.18;;;3.22;;
74543;SDS011;63016;55.030;38.710;2023-05-07T00:25:22;7.63;;;3.53;;
74543;SDS011;63016;55.030;38.710;2023-05-07T00:27:48;8.05;;;3.08;;
74543;SDS011;63016;55.030;38.710;2023-05-07T00:30:13;8.65;;;3.75;;
74543;SDS011;63016;55.030;38.710;2023-05-07T00:32:39;6.05;;;3.20;;
74543;SDS011;63016;55.030;38.710;2023-05-07T00:35:05;7.20;;;3.15;;
74543;SDS011;63016;55.030;38.710;2023-05-07T00:37:31;7.07;;;3.38;;
74543;SDS011;63016;55.030;38.710;2023-05-07T00:39:56;7.20;;;3.38;;
74543;SDS011;63016;55.030;38.710;2023-05-07T00:42:22;8.13;;;3.95;;
74543;SDS011;63016;55.030;38.710;2023-05-07T00:44:47;6.82;;;3.50;;
74543;SDS011;63016;55.030;38.710;2023-05-07T00:47:13;7.63;;;3.33;;
74543;SDS011;63016;55.030;38.710;2023-05-07T00:49:43;7.90;;;3.55;;
74543;SDS011;63016;55.030;38.710;2023-05-07T00:52:13;8.05;;;3.63;;
74543;SDS011;63016;55.030;38.710;2023-05-07T00:54:41;7.38;;;3.58;;
74543;SDS011;63016;55.030;38.710;2023-05-07T00:57:08;9.77;;;3.97;;
74543;SDS011;63016;55.030;38.710;2023-05-07T00:59:36;6.35;;;3.80;;
74543;SDS011;63016;55.030;38.710;2023-05-07T01:02:01;7.68;;;3.70;;
74543;SDS011;63016;55.030;38.710;2023-05-07T01:04:27;9.88;;;3.67;;
74543;SDS011;63016;55.030;38.710;2023-05-07T01:06:53;7.30;;;3.15;;
74543;SDS011;63016;55.030;38.710;2023-05-07T01:09:21;8.02;;;3.65;;
74543;SDS011;63016;55.030;38.710;2023-05-07T01:11:49;7.28;;;3.92;;
74543;SDS011;63016;55.030;38.710;2023-05-07T01:14:16;10.77;;;3.45;;
74543;SDS011;63016;55.030;38.710;2023-05-07T01:16:42;9.20;;;3.55;;
74543;SDS011;63016;55.030;38.710;2023-05-07T01:19:08;7.60;;;4.15;;
74543;SDS011;63016;55.030;38.710;2023-05-07T01:21:38;9.07;;;4.20;;
74543;SDS011;63016;55.030;38.710;2023-05-07T01:24:04;9.45;;;3.63;;
74543;SDS011;63016;55.030;38.710;2023-05-07T01:26:30;8.80;;;3.97;;
74543;SDS011;63016;55.030;38.710;2023-05-07T01:28:56;7.63;;;3.78;;
74543;SDS011;63016;55.030;38.710;2023-05-07T01:31:21;8.90;;;4.00;;
74543;SDS011;63016;55.030;38.710;2023-05-07T01:33:48;8.98;;;3.55;;
74543;SDS011;63016;55.030;38.710;2023-05-07T01:36:15;8.18;;;3.65;;
74543;SDS011;63016;55.030;38.710;2023-05-07T01:38:43;8.20;;;3.83;;
74543;SDS011;63016;55.030;38.710;2023-05-07T01:41:09;9.50;;;4.28;;
74543;SDS011;63016;55.030;38.710;2023-05-07T01:43:36;10.00;;;3.47;;
74543;SDS011;63016;55.030;38.710;2023-05-07T01:46:01;8.52;;;4.03;;
74543;SDS011;63016;55.030;38.710;2023-05-07T01:48:27;7.82;;;3.33;;
74543;SDS011;63016;55.030;38.710;2023-05-07T01:50:53;7.20;;;3.33;;
74543;SDS011;63016;55.030;38.710;2023-05-07T01:53:20;8.85;;;4.13;;
74543;SDS011;63016;55.030;38.710;2023-05-07T01:55:46;7.68;;;3.40;;
74543;SDS011;63016;55.030;38.710;2023-05-07T01:58:11;8.05;;;4.13;;
74543;SDS011;63016;55.030;38.710;2023-05-07T02:00:37;9.20;;;3.85;;
74543;SDS011;63016;55.030;38.710;2023-05-07T02:03:02;6.78;;;3.50;;
74543;SDS011;63016;55.030;38.710;2023-05-07T02:05:28;7.88;;;3.90;;
74543;SDS011;63016;55.030;38.710;2023-05-07T02:07:53;7.78;;;3.70;;
74543;SDS011;63016;55.030;38.710;2023-05-07T02:10:19;8.20;;;3.65;;
74543;SDS011;63016;55.030;38.710;2023-05-07T02:12:44;8.45;;;3.75;;
74543;SDS011;63016;55.030;38.710;2023-05-07T02:15:10;9.40;;;3.92;;
74543;SDS011;63016;55.030;38.710;2023-05-07T02:17:38;7.65;;;3.78;;
74543;SDS011;63016;55.030;38.710;2023-05-07T02:20:05;7.15;;;3.63;;
74543;SDS011;63016;55.030;38.710;2023-05-07T02:22:32;7.55;;;3.08;;
74543;SDS011;63016;55.030;38.710;2023-05-07T02:24:57;8.55;;;4.13;;
74543;SDS011;63016;55.030;38.710;2023-05-07T02:27:23;8.68;;;4.15;;
74543;SDS011;63016;55.030;38.710;2023-05-07T02:29:48;7.93;;;3.60;;
74543;SDS011;63016;55.030;38.710;2023-05-07T02:32:14;9.60;;;3.67;;
74543;SDS011;63016;55.030;38.710;2023-05-07T02:34:39;8.32;;;4.00;;
74543;SDS011;63016;55.030;38.710;2023-05-07T02:37:05;7.40;;;3.90;;
74543;SDS011;63016;55.030;38.710;2023-05-07T02:39:30;8.75;;;3.97;;
74543;SDS011;63016;55.030;38.710;2023-05-07T02:41:56;7.47;;;4.18;;
74543;SDS011;63016;55.030;38.710;2023-05-07T02:44:21;7.03;;;4.03;;
74543;SDS011;63016;55.030;38.710;2023-05-07T02:46:47;9.38;;;3.75;;
74543;SDS011;63016;55.030;38.710;2023-05-07T02:49:12;9.30;;;3.97;;
74543;SDS011;63016;55.030;38.710;2023-05-07T02:51:37;8.00;;;3.60;;
74543;SDS011;63016;55.030;38.710;2023-05-07T02:54:03;7.47;;;3.70;;
74543;SDS011;63016;55.030;38.710;2023-05-07T02:56:29;7.45;;;3.97;;
74543;SDS011;63016;55.030;38.710;2023-05-07T02:58:55;8.18;;;4.00;;
74543;SDS011;63016;55.030;38.710;2023-05-07T03:01:20;7.32;;;4.10;;
74543;SDS011;63016;55.030;38.710;2023-05-07T03:03:46;6.22;;;3.97;;
74543;SDS011;63016;55.030;38.710;2023-05-07T03:06:11;8.93;;;4.45;;
74543;SDS011;63016;55.030;38.710;2023-05-07T03:08:37;8.75;;;4.38;;
74543;SDS011;63016;55.030;38.710;2023-05-07T03:11:02;9.27;;;3.95;;
74543;SDS011;63016;55.030;38.710;2023-05-07T03:13:28;9.75;;;4.22;;
74543;SDS011;63016;55.030;38.710;2023-05-07T03:15:53;7.18;;;3.60;;
74543;SDS011;63016;55.030;38.710;2023-05-07T03:18:19;8.85;;;3.95;;
74543;SDS011;63016;55.030;38.710;2023-05-07T03:20:44;9.32;;;4.93;;
74543;SDS011;63016;55.030;38.710;2023-05-07T03:23:10;8.18;;;3.75;;
74543;SDS011;63016;55.030;38.710;2023-05-07T03:25:35;8.35;;;4.10;;
74543;SDS011;63016;55.030;38.710;2023-05-07T03:28:01;9.45;;;4.05;;
74543;SDS011;63016;55.030;38.710;2023-05-07T03:30:26;10.13;;;4.22;;
74543;SDS011;63016;55.030;38.710;2023-05-07T03:32:52;8.82;;;4.13;;
74543;SDS011;63016;55.030;38.710;2023-05-07T03:35:17;7.57;;;3.92;;
74543;SDS011;63016;55.030;38.710;2023-05-07T03:37:43;8.27;;;4.88;;
74543;SDS011;63016;55.030;38.710;2023-05-07T03:40:09;10.20;;;4.72;;
74543;SDS011;63016;55.030;38.710;2023-05-07T03:42:35;9.32;;;3.85;;
74543;SDS011;63016;55.030;38.710;2023-05-07T03:45:01;8.30;;;4.63;;
74543;SDS011;63016;55.030;38.710;2023-05-07T03:47:26;7.78;;;3.65;;
74543;SDS011;63016;55.030;38.710;2023-05-07T03:49:52;8.10;;;4.10;;
74543;SDS011;63016;55.030;38.710;2023-05-07T03:52:18;9.05;;;3.53;;
74543;SDS011;63016;55.030;38.710;2023-05-07T03:54:48;8.10;;;3.97;;
74543;SDS011;63016;55.030;38.710;2023-05-07T03:57:14;8.55;;;4.07;;
74543;SDS011;63016;55.030;38.710;2023-05-07T03:59:40;9.05;;;4.65;;
74543;SDS011;63016;55.030;38.710;2023-05-07T04:02:05;7.40;;;3.95;;
74543;SDS011;63016;55.030;38.710;2023-05-07T04:04:31;8.65;;;3.90;;
74543;SDS011;63016;55.030;38.710;2023-05-07T04:06:57;8.57;;;4.00;;
74543;SDS011;63016;55.030;38.710;2023-05-07T04:09:24;6.43;;;3.83;;
74543;SDS011;63016;55.030;38.710;2023-05-07T04:11:50;12.23;;;3.78;;
74543;SDS011;63016;55.030;38.710;2023-05-07T04:14:15;8.30;;;3.60;;
74543;SDS011;63016;55.030;38.710;2023-05-07T04:16:41;6.53;;;3.65;;
74543;SDS011;63016;55.030;38.710;2023-05-07T04:19:06;7.35;;;3.78;;
74543;SDS011;63016;55.030;38.710;2023-05-07T04:21:32;5.90;;;3.45;;
74543;SDS011;63016;55.030;38.710;2023-05-07T04:23:57;7.30;;;4.43;;
74543;SDS011;63016;55.030;38.710;2023-05-07T04:26:23;7.55;;;3.60;;
74543;SDS011;63016;55.030;38.710;2023-05-07T04:28:49;6.53;;;3.33;;
74543;SDS011;63016;55.030;38.710;2023-05-07T04:31:14;6.90;;;3.40;;
74543;SDS011;63016;55.030;38.710;2023-05-07T04:33:40;6.07;;;3.33;;
74543;SDS011;63016;55.030;38.710;2023-05-07T04:36:06;7.38;;;3.50;;
74543;SDS011;63016;55.030;38.710;2023-05-07T04:38:32;8.60;;;3.28;;
74543;SDS011;63016;55.030;38.710;2023-05-07T04:41:08;7.00;;;3.22;;
74543;SDS011;63016;55.030;38.710;2023-05-07T04:43:34;7.03;;;3.03;;
74543;SDS011;63016;55.030;38.710;2023-05-07T04:46:00;5.22;;;2.90;;
74543;SDS011;63016;55.030;38.710;2023-05-07T04:48:25;4.90;;;2.95;;
74543;SDS011;63016;55.030;38.710;2023-05-07T04:50:51;5.68;;;2.97;;
74543;SDS011;63016;55.030;38.710;2023-05-07T04:53:17;6.70;;;3.42;;
74543;SDS011;63016;55.030;38.710;2023-05-07T04:55:43;5.22;;;3.45;;
74543;SDS011;63016;55.030;38.710;2023-05-07T04:58:10;5.55;;;2.88;;
74543;SDS011;63016;55.030;38.710;2023-05-07T05:00:36;6.03;;;2.70;;
74543;SDS011;63016;55.030;38.710;2023-05-07T05:03:01;5.45;;;3.05;;
74543;SDS011;63016;55.030;38.710;2023-05-07T05:05:27;5.07;;;2.72;;
74543;SDS011;63016;55.030;38.710;2023-05-07T05:07:52;5.30;;;2.63;;
74543;SDS011;63016;55.030;38.710;2023-05-07T05:10:18;4.88;;;2.58;;
74543;SDS011;63016;55.030;38.710;2023-05-07T05:12:43;5.00;;;2.08;;
74543;SDS011;63016;55.030;38.710;2023-05-07T05:15:10;5.38;;;2.30;;
74543;SDS011;63016;55.030;38.710;2023-05-07T05:17:36;4.28;;;1.65;;
74543;SDS011;63016;55.030;38.710;2023-05-07T05:20:02;3.72;;;1.13;;
74543;SDS011;63016;55.030;38.710;2023-05-07T05:22:28;3.20;;;1.70;;
74543;SDS011;63016;55.030;38.710;2023-05-07T05:24:56;2.20;;;1.30;;
74543;SDS011;63016;55.030;38.710;2023-05-07T05:27:21;1.77;;;1.10;;
74543;SDS011;63016;55.030;38.710;2023-05-07T05:29:47;4.47;;;1.20;;
74543;SDS011;63016;55.030;38.710;2023-05-07T05:32:12;3.58;;;1.33;;
74543;SDS011;63016;55.030;38.710;2023-05-07T05:34:38;3.15;;;1.20;;
74543;SDS011;63016;55.030;38.710;2023-05-07T05:37:03;3.22;;;1.48;;
74543;SDS011;63016;55.030;38.710;2023-05-07T05:39:29;2.33;;;1.50;;
74543;SDS011;63016;55.030;38.710;2023-05-07T05:41:54;2.00;;;1.13;;
74543;SDS011;63016;55.030;38.710;2023-05-07T05:44:20;2.85;;;1.40;;
74543;SDS011;63016;55.030;38.710;2023-05-07T05:46:45;2.10;;;1.35;;
74543;SDS011;63016;55.030;38.710;2023-05-07T05:49:11;2.47;;;1.35;;
74543;SDS011;63016;55.030;38.710;2023-05-07T05:51:36;2.70;;;1.30;;
74543;SDS011;63016;55.030;38.710;2023-05-07T05:54:02;3.55;;;1.30;;
74543;SDS011;63016;55.030;38.710;2023-05-07T05:56:27;4.88;;;1.05;;
74543;SDS011;63016;55.030;38.710;2023-05-07T05:58:53;1.80;;;1.05;;
74543;SDS011;63016;55.030;38.710;2023-05-07T06:01:18;3.50;;;1.13;;
74543;SDS011;63016;55.030;38.710;2023-05-07T06:03:44;2.72;;;1.13;;
74543;SDS011;63016;55.030;38.710;2023-05-07T06:06:09;1.77;;;1.10;;
74543;SDS011;63016;55.030;38.710;2023-05-07T06:08:35;2.40;;;1.10;;
74543;SDS011;63016;55.030;38.710;2023-05-07T06:11:01;1.60;;;1.00;;
74543;SDS011;63016;55.030;38.710;2023-05-07T06:13:27;1.70;;;1.00;;
74543;SDS011;63016;55.030;38.710;2023-05-07T06:15:53;2.35;;;1.00;;
74543;SDS011;63016;55.030;38.710;2023-05-07T06:18:18;2.50;;;0.95;;
74543;SDS011;63016;55.030;38.710;2023-05-07T06:20:44;1.90;;;1.00;;
74543;SDS011;63016;55.030;38.710;2023-05-07T06:23:09;1.20;;;0.90;;
74543;SDS011;63016;55.030;38.710;2023-05-07T06:25:35;2.30;;;1.10;;
74543;SDS011;63016;55.030;38.710;2023-05-07T06:28:00;1.75;;;1.00;;
74543;SDS011;63016;55.030;38.710;2023-05-07T06:30:26;2.20;;;1.20;;
74543;SDS011;63016;55.030;38.710;2023-05-07T06:32:51;2.03;;;1.00;;
74543;SDS011;63016;55.030;38.710;2023-05-07T06:35:17;1.23;;;0.90;;
74543;SDS011;63016;55.030;38.710;2023-05-07T06:37:43;2.38;;;1.10;;
74543;SDS011;63016;55.030;38.710;2023-05-07T06:40:08;1.25;;;1.02;;
74543;SDS011;63016;55.030;38.710;2023-05-07T06:42:35;2.95;;;1.27;;
74543;SDS011;63016;55.030;38.710;2023-05-07T06:45:02;2.08;;;1.15;;
74543;SDS011;63016;55.030;38.710;2023-05-07T06:47:27;2.55;;;0.90;;
74543;SDS011;63016;55.030;38.710;2023-05-07T06:49:53;2.83;;;1.00;;
74543;SDS011;63016;55.030;38.710;2023-05-07T06:52:18;1.77;;;0.98;;
74543;SDS011;63016;55.030;38.710;2023-05-07T06:54:44;2.03;;;1.00;;
74543;SDS011;63016;55.030;38.710;2023-05-07T06:57:09;1.50;;;0.90;;
74543;SDS011;63016;55.030;38.710;2023-05-07T06:59:35;1.63;;;0.90;;
74543;SDS011;63016;55.030;38.710;2023-05-07T07:02:01;1.52;;;0.90;;
74543;SDS011;63016;55.030;38.710;2023-05-07T07:04:26;3.42;;;0.90;;
74543;SDS011;63016;55.030;38.710;2023-05-07T07:06:53;3.25;;;1.20;;
74543;SDS011;63016;55.030;38.710;2023-05-07T07:09:19;3.42;;;0.93;;
74543;SDS011;63016;55.030;38.710;2023-05-07T07:11:45;1.52;;;0.95;;
74543;SDS011;63016;55.030;38.710;2023-05-07T07:14:10;2.15;;;1.00;;
74543;SDS011;63016;55.030;38.710;2023-05-07T07:16:36;1.27;;;0.98;;
74543;SDS011;63016;55.030;38.710;2023-05-07T07:19:01;2.80;;;1.10;;
74543;SDS011;63016;55.030;38.710;2023-05-07T07:21:27;2.10;;;1.13;;
74543;SDS011;63016;55.030;38.710;2023-05-07T07:23:52;2.42;;;1.20;;
74543;SDS011;63016;55.030;38.710;2023-05-07T07:26:18;2.20;;;1.08;;
74543;SDS011;63016;55.030;38.710;2023-05-07T07:28:44;2.22;;;1.10;;
74543;SDS011;63016;55.030;38.710;2023-05-07T07:31:10;1.38;;;1.00;;
74543;SDS011;63016;55.030;38.710;2023-05-07T07:33:36;3.60;;;1.13;;
74543;SDS011;63016;55.030;38.710;2023-05-07T07:36:02;1.98;;;1.27;;
74543;SDS011;63016;55.030;38.710;2023-05-07T07:38:28;1.23;;;1.02;;
74543;SDS011;63016;55.030;38.710;2023-05-07T07:40:56;3.47;;;0.93;;
74543;SDS011;63016;55.030;38.710;2023-05-07T07:43:22;3.35;;;1.10;;
74543;SDS011;63016;55.030;38.710;2023-05-07T07:45:47;2.10;;;1.38;;
74543;SDS011;63016;55.030;38.710;2023-05-07T07:48:13;3.63;;;1.30;;
74543;SDS011;63016;55.030;38.710;2023-05-07T07:50:39;1.50;;;1.10;;
74543;SDS011;63016;55.030;38.710;2023-05-07T07:53:05;2.45;;;1.00;;
74543;SDS011;63016;55.030;38.710;2023-05-07T07:55:30;1.55;;;1.10;;
74543;SDS011;63016;55.030;38.710;2023-05-07T07:57:57;1.88;;;1.00;;
74543;SDS011;63016;55.030;38.710;2023-05-07T08:00:22;3.65;;;1.15;;
74543;SDS011;63016;55.030;38.710;2023-05-07T08:02:48;4.38;;;1.08;;
74543;SDS011;63016;55.030;38.710;2023-05-07T08:05:13;1.33;;;0.80;;
74543;SDS011;63016;55.030;38.710;2023-05-07T08:07:40;3.22;;;1.13;;
74543;SDS011;63016;55.030;38.710;2023-05-07T08:10:06;1.85;;;0.90;;
74543;SDS011;63016;55.030;38.710;2023-05-07T08:12:32;2.38;;;0.85;;
74543;SDS011;63016;55.030;38.710;2023-05-07T08:14:57;2.35;;;0.90;;
74543;SDS011;63016;55.030;38.710;2023-05-07T08:17:23;2.95;;;1.10;;
74543;SDS011;63016;55.030;38.710;2023-05-07T08:19:48;4.68;;;1.10;;
74543;SDS011;63016;55.030;38.710;2023-05-07T08:22:14;1.25;;;1.00;;
74543;SDS011;63016;55.030;38.710;2023-05-07T08:24:40;2.80;;;0.90;;
74543;SDS011;63016;55.030;38.710;2023-05-07T08:27:06;1.45;;;0.70;;
74543;SDS011;63016;55.030;38.710;2023-05-07T08:29:31;5.70;;;0.90;;
74543;SDS011;63016;55.030;38.710;2023-05-07T08:31:57;5.00;;;0.90;;
74543;SDS011;63016;55.030;38.710;2023-05-07T08:34:22;1.65;;;1.00;;
74543;SDS011;63016;55.030;38.710;2023-05-07T08:36:48;1.77;;;1.10;;
74543;SDS011;63016;55.030;38.710;2023-05-07T08:39:15;2.17;;;1.15;;
74543;SDS011;63016;55.030;38.710;2023-05-07T08:41:43;3.55;;;1.35;;
74543;SDS011;63016;55.030;38.710;2023-05-07T08:44:14;4.38;;;1.63;;
74543;SDS011;63016;55.030;38.710;2023-05-07T08:46:41;1.10;;;0.90;;
74543;SDS011;63016;55.030;38.710;2023-05-07T08:49:11;2.95;;;1.10;;
74543;SDS011;63016;55.030;38.710;2023-05-07T08:51:37;2.53;;;0.95;;
74543;SDS011;63016;55.030;38.710;2023-05-07T08:54:05;1.67;;;0.90;;
74543;SDS011;63016;55.030;38.710;2023-05-07T08:56:32;2.47;;;0.90;;
74543;SDS011;63016;55.030;38.710;2023-05-07T08:58:58;1.67;;;0.98;;
74543;SDS011;63016;55.030;38.710;2023-05-07T09:01:24;1.50;;;1.00;;
74543;SDS011;63016;55.030;38.710;2023-05-07T09:03:51;1.83;;;0.80;;
74543;SDS011;63016;55.030;38.710;2023-05-07T09:06:19;21.48;;;1.63;;
74543;SDS011;63016;55.030;38.710;2023-05-07T09:08:51;4.13;;;1.20;;
74543;SDS011;63016;55.030;38.710;2023-05-07T09:11:19;8.48;;;1.00;;
74543;SDS011;63016;55.030;38.710;2023-05-07T09:13:46;4.57;;;1.00;;
74543;SDS011;63016;55.030;38.710;2023-05-07T09:16:12;2.72;;;0.90;;
74543;SDS011;63016;55.030;38.710;2023-05-07T09:18:42;5.45;;;1.10;;
74543;SDS011;63016;55.030;38.710;2023-05-07T09:21:11;2.28;;;0.98;;
74543;SDS011;63016;55.030;38.710;2023-05-07T09:23:41;3.80;;;1.00;;
74543;SDS011;63016;55.030;38.710;2023-05-07T09:26:06;2.42;;;0.90;;
74543;SDS011;63016;55.030;38.710;2023-05-07T09:28:37;2.00;;;1.00;;
74543;SDS011;63016;55.030;38.710;2023-05-07T09:31:07;2.85;;;1.10;;
74543;SDS011;63016;55.030;38.710;2023-05-07T09:33:33;1.52;;;1.30;;
74543;SDS011;63016;55.030;38.710;2023-05-07T09:36:09;2.30;;;1.35;;
74543;SDS011;63016;55.030;38.710;2023-05-07T09:38:36;3.30;;;1.20;;
74543;SDS011;63016;55.030;38.710;2023-05-07T09:43:38;1.88;;;1.20;;
74543;SDS011;63016;55.030;38.710;2023-05-07T09:46:10;2.40;;;1.10;;
74543;SDS011;63016;55.030;38.710;2023-05-07T09:48:38;1.42;;;1.20;;
74543;SDS011;63016;55.030;38.710;2023-05-07T09:51:11;2.38;;;1.00;;
74543;SDS011;63016;55.030;38.710;2023-05-07T09:53:59;3.50;;;1.15;;
74543;SDS011;63016;55.030;38.710;2023-05-07T09:56:29;1.58;;;1.13;;
74543;SDS011;63016;55.030;38.710;2023-05-07T09:58:56;2.67;;;1.25;;
74543;SDS011;63016;55.030;38.710;2023-05-07T10:01:25;1.60;;;1.20;;
74543;SDS011;63016;55.030;38.710;2023-05-07T10:03:52;3.97;;;1.15;;
74543;SDS011;63016;55.030;38.710;2023-05-07T10:06:19;6.53;;;1.38;;
74543;SDS011;63016;55.030;38.710;2023-05-07T10:08:45;4.15;;;1.30;;
74543;SDS011;63016;55.030;38.710;2023-05-07T10:11:12;8.93;;;1.88;;
74543;SDS011;63016;55.030;38.710;2023-05-07T10:13:37;3.00;;;1.30;;
74543;SDS011;63016;55.030;38.710;2023-05-07T10:16:04;3.70;;;1.20;;
74543;SDS011;63016;55.030;38.710;2023-05-07T10:18:30;1.83;;;1.10;;
74543;SDS011;63016;55.030;38.710;2023-05-07T10:21:07;2.75;;;1.33;;
74543;SDS011;63016;55.030;38.710;2023-05-07T10:23:35;4.97;;;1.50;;
74543;SDS011;63016;55.030;38.710;2023-05-07T10:26:04;1.98;;;1.20;;
74543;SDS011;63016;55.030;38.710;2023-05-07T10:28:33;2.47;;;1.33;;
74543;SDS011;63016;55.030;38.710;2023-05-07T10:33:35;2.00;;;1.40;;
74543;SDS011;63016;55.030;38.710;2023-05-07T10:36:02;1.90;;;1.30;;
74543;SDS011;63016;55.030;38.710;2023-05-07T10:38:29;2.25;;;1.30;;
74543;SDS011;63016;55.030;38.710;2023-05-07T10:40:55;2.67;;;1.17;;
74543;SDS011;63016;55.030;38.710;2023-05-07T10:43:21;3.92;;;1.50;;
74543;SDS011;63016;55.030;38.710;2023-05-07T10:51:36;3.78;;;1.38;;
74543;SDS011;63016;55.030;38.710;2023-05-07T10:56:38;3.13;;;1.20;;
74543;SDS011;63016;55.030;38.710;2023-05-07T11:02:01;1.90;;;1.10;;
74543;SDS011;63016;55.030;38.710;2023-05-07T11:04:28;2.40;;;1.10;;
74543;SDS011;63016;55.030;38.710;2023-05-07T11:15:08;2.47;;;1.02;;
74543;SDS011;63016;55.030;38.710;2023-05-07T11:17:35;4.60;;;1.27;;
74543;SDS011;63016;55.030;38.710;2023-05-07T11:20:17;4.20;;;1.10;;
74543;SDS011;63016;55.030;38.710;2023-05-07T11:22:43;2.35;;;0.93;;
74543;SDS011;63016;55.030;38.710;2023-05-07T11:25:08;2.42;;;0.90;;
74543;SDS011;63016;55.030;38.710;2023-05-07T11:27:34;2.03;;;0.93;;
74543;SDS011;63016;55.030;38.710;2023-05-07T11:30:00;3.30;;;1.00;;
74543;SDS011;63016;55.030;38.710;2023-05-07T11:32:26;1.67;;;1.10;;
74543;SDS011;63016;55.030;38.710;2023-05-07T11:34:57;3.22;;;1.30;;
74543;SDS011;63016;55.030;38.710;2023-05-07T11:37:25;2.35;;;1.00;;
74543;SDS011;63016;55.030;38.710;2023-05-07T11:40:13;1.95;;;1.30;;
74543;SDS011;63016;55.030;38.710;2023-05-07T11:42:39;2.92;;;1.15;;
74543;SDS011;63016;55.030;38.710;2023-05-07T11:45:06;2.00;;;1.27;;
74543;SDS011;63016;55.030;38.710;2023-05-07T11:47:33;3.03;;;0.80;;
74543;SDS011;63016;55.030;38.710;2023-05-07T11:50:02;3.08;;;0.93;;
74543;SDS011;63016;55.030;38.710;2023-05-07T11:52:29;1.13;;;0.90;;
74543;SDS011;63016;55.030;38.710;2023-05-07T11:54:56;1.60;;;0.95;;
74543;SDS011;63016;55.030;38.710;2023-05-07T11:57:23;1.25;;;0.98;;
74543;SDS011;63016;55.030;38.710;2023-05-07T11:59:53;3.17;;;1.20;;
74543;SDS011;63016;55.030;38.710;2023-05-07T12:02:19;15.88;;;6.43;;
74543;SDS011;63016;55.030;38.710;2023-05-07T12:04:45;9.18;;;5.07;;
74543;SDS011;63016;55.030;38.710;2023-05-07T12:07:13;8.20;;;3.70;;
74543;SDS011;63016;55.030;38.710;2023-05-07T12:09:40;3.25;;;1.85;;
74543;SDS011;63016;55.030;38.710;2023-05-07T12:12:06;3.80;;;1.20;;
74543;SDS011;63016;55.030;38.710;2023-05-07T12:14:32;3.13;;;1.25;;
74543;SDS011;63016;55.030;38.710;2023-05-07T12:17:02;3.75;;;1.15;;
74543;SDS011;63016;55.030;38.710;2023-05-07T12:19:30;2.85;;;1.08;;
74543;SDS011;63016;55.030;38.710;2023-05-07T12:21:56;1.50;;;1.00;;
74543;SDS011;63016;55.030;38.710;2023-05-07T12:24:22;3.55;;;1.48;;
74543;SDS011;63016;55.030;38.710;2023-05-07T12:26:48;5.90;;;1.60;;
74543;SDS011;63016;55.030;38.710;2023-05-07T12:29:13;2.90;;;1.33;;
74543;SDS011;63016;55.030;38.710;2023-05-07T12:31:42;5.68;;;1.40;;
74543;SDS011;63016;55.030;38.710;2023-05-07T12:34:10;2.78;;;1.00;;
74543;SDS011;63016;55.030;38.710;2023-05-07T12:36:39;2.25;;;1.02;;
74543;SDS011;63016;55.030;38.710;2023-05-07T12:39:09;3.38;;;1.00;;
74543;SDS011;63016;55.030;38.710;2023-05-07T12:41:53;2.33;;;0.90;;
74543;SDS011;63016;55.030;38.710;2023-05-07T12:44:23;1.70;;;1.00;;
74543;SDS011;63016;55.030;38.710;2023-05-07T12:46:56;2.67;;;1.30;;
74543;SDS011;63016;55.030;38.710;2023-05-07T12:49:22;3.10;;;1.13;;
74543;SDS011;63016;55.030;38.710;2023-05-07T12:51:48;1.58;;;0.95;;
74543;SDS011;63016;55.030;38.710;2023-05-07T12:57:01;1.30;;;1.00;;
74543;SDS011;63016;55.030;38.710;2023-05-07T12:59:36;1.90;;;1.02;;
74543;SDS011;63016;55.030;38.710;2023-05-07T13:02:03;2.10;;;1.30;;
74543;SDS011;63016;55.030;38.710;2023-05-07T13:04:29;1.88;;;1.17;;
74543;SDS011;63016;55.030;38.710;2023-05-07T13:06:54;5.85;;;1.55;;
74543;SDS011;63016;55.030;38.710;2023-05-07T13:09:20;2.88;;;1.40;;
74543;SDS011;63016;55.030;38.710;2023-05-07T13:11:46;2.55;;;1.20;;
74543;SDS011;63016;55.030;38.710;2023-05-07T13:14:11;5.00;;;1.30;;
74543;SDS011;63016;55.030;38.710;2023-05-07T13:16:37;3.65;;;0.90;;
74543;SDS011;63016;55.030;38.710;2023-05-07T13:19:03;2.30;;;1.48;;
74543;SDS011;63016;55.030;38.710;2023-05-07T13:21:28;4.72;;;1.38;;
74543;SDS011;63016;55.030;38.710;2023-05-07T13:23:56;3.35;;;1.27;;
74543;SDS011;63016;55.030;38.710;2023-05-07T13:26:23;2.95;;;1.15;;
74543;SDS011;63016;55.030;38.710;2023-05-07T13:28:48;4.63;;;0.90;;
74543;SDS011;63016;55.030;38.710;2023-05-07T13:31:14;1.80;;;0.90;;
74543;SDS011;63016;55.030;38.710;2023-05-07T13:33:39;2.42;;;1.00;;
74543;SDS011;63016;55.030;38.710;2023-05-07T13:36:05;3.50;;;1.05;;
74543;SDS011;63016;55.030;38.710;2023-05-07T13:38:31;2.50;;;0.88;;
74543;SDS011;63016;55.030;38.710;2023-05-07T13:40:56;4.75;;;0.80;;
74543;SDS011;63016;55.030;38.710;2023-05-07T13:43:22;4.40;;;0.93;;
74543;SDS011;63016;55.030;38.710;2023-05-07T13:45:47;5.18;;;1.20;;
74543;SDS011;63016;55.030;38.710;2023-05-07T13:48:13;25.02;;;1.80;;
74543;SDS011;63016;55.030;38.710;2023-05-07T13:50:38;4.75;;;1.38;;
74543;SDS011;63016;55.030;38.710;2023-05-07T13:53:04;4.85;;;1.17;;
74543;SDS011;63016;55.030;38.710;2023-05-07T13:55:30;7.40;;;1.35;;
74543;SDS011;63016;55.030;38.710;2023-05-07T13:57:56;3.72;;;1.30;;
74543;SDS011;63016;55.030;38.710;2023-05-07T14:00:23;2.10;;;1.10;;
74543;SDS011;63016;55.030;38.710;2023-05-07T14:02:49;5.10;;;1.45;;
74543;SDS011;63016;55.030;38.710;2023-05-07T14:05:15;10.75;;;1.73;;
74543;SDS011;63016;55.030;38.710;2023-05-07T14:07:41;7.13;;;1.40;;
74543;SDS011;63016;55.030;38.710;2023-05-07T14:10:06;5.57;;;1.20;;
74543;SDS011;63016;55.030;38.710;2023-05-07T14:12:32;6.22;;;1.00;;
74543;SDS011;63016;55.030;38.710;2023-05-07T14:14:58;9.25;;;1.05;;
74543;SDS011;63016;55.030;38.710;2023-05-07T14:17:24;5.50;;;0.90;;
74543;SDS011;63016;55.030;38.710;2023-05-07T14:19:51;3.45;;;1.20;;
74543;SDS011;63016;55.030;38.710;2023-05-07T14:22:21;3.58;;;1.42;;
74543;SDS011;63016;55.030;38.710;2023-05-07T14:24:48;5.10;;;1.60;;
74543;SDS011;63016;55.030;38.710;2023-05-07T14:27:14;1.52;;;1.33;;
74543;SDS011;63016;55.030;38.710;2023-05-07T14:29:40;5.97;;;2.20;;
74543;SDS011;63016;55.030;38.710;2023-05-07T14:32:05;4.63;;;1.23;;
74543;SDS011;63016;55.030;38.710;2023-05-07T14:34:31;3.38;;;1.30;;
74543;SDS011;63016;55.030;38.710;2023-05-07T14:36:57;3.05;;;1.10;;
74543;SDS011;63016;55.030;38.710;2023-05-07T14:39:23;2.08;;;0.90;;
74543;SDS011;63016;55.030;38.710;2023-05-07T14:41:48;4.95;;;1.02;;
74543;SDS011;63016;55.030;38.710;2023-05-07T14:44:14;1.60;;;1.10;;
74543;SDS011;63016;55.030;38.710;2023-05-07T14:46:40;2.13;;;0.98;;
74543;SDS011;63016;55.030;38.710;2023-05-07T14:49:05;1.95;;;1.10;;
74543;SDS011;63016;55.030;38.710;2023-05-07T14:51:31;3.28;;;1.08;;
74543;SDS011;63016;55.030;38.710;2023-05-07T14:53:58;2.83;;;1.30;;
74543;SDS011;63016;55.030;38.710;2023-05-07T14:56:23;5.25;;;1.33;;